Time;durP1;ratioP1;P1;durP2;ratioP2;P2;SDS_P1;SDS_P2;PMS_P1;PMS_P2;Temp;Humidity;BMP_temperature;BMP_pressure;BME280_temperature;BME280_humidity;BME280_pressure;Samples;Min_cycle;Max_cycle;Signal;HPM_P1;HPM_P2
2023/01/12 00:00:35;;;;;;;15.23;3.20;;;8.40;99.90;;;;;;5050472;28;20037;-75
2023/01/12 00:03:00;;;;;;;20.10;3.38;;;8.50;99.90;;;;;;5049585;28;20514;-75
2023/01/12 00:05:26;;;;;;;16.40;3.13;;;8.50;99.90;;;;;;5033798;28;20037;-75
2023/01/12 00:07:51;;;;;;;20.02;3.55;;;8.40;99.90;;;;;;5050316;28;20060;-75
2023/01/12 00:10:17;;;;;;;15.02;3.38;;;8.40;99.90;;;;;;5032635;28;20059;-75
2023/01/12 00:12:42;;;;;;;16.70;2.92;;;8.30;99.90;;;;;;5049042;28;20037;-75
2023/01/12 00:15:08;;;;;;;18.48;3.40;;;8.40;99.90;;;;;;5033423;28;20041;-75
2023/01/12 00:17:34;;;;;;;17.73;3.28;;;8.30;99.90;;;;;;5049502;28;20047;-75
2023/01/12 00:19:59;;;;;;;16.08;2.58;;;8.30;99.90;;;;;;5050187;28;20055;-75
2023/01/12 00:22:25;;;;;;;23.88;4.20;;;8.40;99.90;;;;;;5049457;28;20128;-75
2023/01/12 00:24:51;;;;;;;17.33;3.70;;;8.30;99.90;;;;;;5050056;28;20128;-75
2023/01/12 00:27:20;;;;;;;17.25;5.53;;;8.40;99.90;;;;;;5050049;28;20047;-75
2023/01/12 00:29:46;;;;;;;18.10;3.70;;;8.50;99.90;;;;;;5050161;28;20076;-76
2023/01/12 00:32:14;;;;;;;21.83;4.43;;;8.30;99.90;;;;;;5050184;28;20068;-76
2023/01/12 00:34:40;;;;;;;19.88;4.80;;;8.40;99.90;;;;;;5033021;28;20036;-76
2023/01/12 00:37:06;;;;;;;21.92;4.60;;;8.50;99.90;;;;;;5049958;28;20047;-75
2023/01/12 00:39:33;;;;;;;18.88;5.68;;;8.50;99.90;;;;;;5050028;28;20415;-76
2023/01/12 00:47:27;;;;;;;19.23;5.50;;;8.30;99.90;;;;;;5053885;28;20051;-76
2023/01/12 00:49:52;;;;;;;20.00;4.13;;;8.30;99.90;;;;;;5053911;28;20045;-75
2023/01/12 00:52:19;;;;;;;20.02;3.95;;;8.30;99.90;;;;;;5053456;28;20409;-76
2023/01/12 00:54:44;;;;;;;23.65;4.13;;;8.40;99.90;;;;;;5053625;28;20040;-75
2023/01/12 00:57:12;;;;;;;20.75;4.50;;;8.20;99.90;;;;;;5053584;28;20404;-75
2023/01/12 00:59:38;;;;;;;21.25;4.22;;;8.20;99.90;;;;;;5037098;28;20041;-75
2023/01/12 01:02:04;;;;;;;28.92;4.38;;;8.30;99.90;;;;;;5053138;28;20410;-75
2023/01/12 01:04:30;;;;;;;17.17;3.42;;;8.40;99.90;;;;;;5052888;28;20037;-76
2023/01/12 01:06:55;;;;;;;18.95;3.50;;;8.30;99.90;;;;;;5053603;28;20037;-75
2023/01/12 01:09:21;;;;;;;18.70;3.83;;;8.30;99.90;;;;;;5053619;28;20045;-76
2023/01/12 01:11:46;;;;;;;20.15;4.47;;;8.30;99.90;;;;;;5053725;28;20045;-76
2023/01/12 01:14:12;;;;;;;14.25;3.05;;;8.50;99.90;;;;;;5036356;28;20045;-76
2023/01/12 01:16:38;;;;;;;15.73;2.95;;;8.50;99.90;;;;;;5037187;28;20134;-76
2023/01/12 01:19:04;;;;;;;14.07;3.60;;;8.40;99.90;;;;;;5053663;28;20037;-76
2023/01/12 01:21:31;;;;;;;22.00;3.45;;;8.50;99.90;;;;;;5053365;28;20115;-76
2023/01/12 01:23:57;;;;;;;11.38;2.78;;;8.40;99.90;;;;;;5052499;28;20040;-76
2023/01/12 01:26:23;;;;;;;18.02;3.83;;;8.30;99.90;;;;;;5053200;28;20052;-76
2023/01/12 01:28:49;;;;;;;13.20;3.03;;;8.30;99.90;;;;;;5053298;28;20029;-76
2023/01/12 01:31:20;;;;;;;17.48;3.67;;;8.30;99.90;;;;;;5036513;28;20075;-75
2023/01/12 01:33:47;;;;;;;14.73;4.75;;;8.00;99.90;;;;;;5052675;28;20450;-76
2023/01/12 01:36:13;;;;;;;19.98;3.90;;;8.20;99.90;;;;;;5053007;28;20053;-75
2023/01/12 01:38:39;;;;;;;13.05;3.20;;;8.20;99.90;;;;;;5053167;28;20045;-75
2023/01/12 01:41:05;;;;;;;21.20;5.60;;;7.90;99.90;;;;;;5053223;28;20080;-75
2023/01/12 01:43:49;;;;;;;15.63;4.35;;;7.90;99.90;;;;;;5052097;28;20423;-75
2023/01/12 01:46:38;;;;;;;18.15;3.97;;;8.20;99.90;;;;;;5036451;28;20033;-76
2023/01/12 01:49:42;;;;;;;25.08;4.07;;;8.00;99.90;;;;;;5052657;28;20067;-75
2023/01/12 01:52:14;;;;;;;21.65;4.07;;;8.10;99.90;;;;;;5052155;28;20045;-75
2023/01/12 01:54:45;;;;;;;24.55;4.30;;;8.00;99.90;;;;;;5051563;28;20040;-76
2023/01/12 01:57:13;;;;;;;23.45;4.93;;;8.10;99.90;;;;;;5035852;28;20399;-75
2023/01/12 01:59:42;;;;;;;16.58;4.07;;;8.10;99.90;;;;;;5052784;28;20045;-76
2023/01/12 02:02:08;;;;;;;22.70;3.85;;;8.30;99.90;;;;;;5052747;28;20064;-76
2023/01/12 02:04:34;;;;;;;19.50;3.72;;;8.10;99.90;;;;;;5035194;28;20487;-75
2023/01/12 02:07:01;;;;;;;17.00;4.43;;;8.20;99.90;;;;;;5052191;28;20037;-76
2023/01/12 02:09:29;;;;;;;17.02;3.58;;;8.30;99.90;;;;;;5052664;28;20056;-76
2023/01/12 02:17:38;;;;;;;18.33;4.30;;;8.50;99.90;;;;;;5052088;28;20106;-76
2023/01/12 02:20:33;;;;;;;20.63;5.97;;;8.30;99.90;;;;;;5052542;28;20045;-75
2023/01/12 02:23:14;;;;;;;13.05;4.07;;;8.30;99.90;;;;;;5051434;28;20045;-75
2023/01/12 02:26:11;;;;;;;18.45;4.78;;;8.40;99.90;;;;;;5052427;28;20052;-75
2023/01/12 02:29:05;;;;;;;13.57;3.97;;;8.20;99.90;;;;;;5052088;28;20040;-76
2023/01/12 02:31:51;;;;;;;27.90;5.72;;;8.30;99.90;;;;;;5052051;28;20067;-75
2023/01/12 02:34:39;;;;;;;19.17;4.00;;;8.40;99.90;;;;;;5051213;28;20144;-76
2023/01/12 02:37:21;;;;;;;24.27;4.55;;;8.40;99.90;;;;;;5051778;28;20045;-75
2023/01/12 02:40:11;;;;;;;27.65;5.80;;;8.50;99.90;;;;;;5052213;28;20364;-75
2023/01/12 02:42:40;;;;;;;28.92;4.75;;;8.40;99.90;;;;;;5051482;28;20499;-76
2023/01/12 02:45:31;;;;;;;22.77;4.13;;;8.50;99.90;;;;;;5051764;28;20065;-75
2023/01/12 02:48:27;;;;;;;24.30;4.50;;;8.50;99.90;;;;;;5035264;28;20045;-75
2023/01/12 02:50:59;;;;;;;27.10;4.72;;;8.60;99.90;;;;;;5051971;28;20402;-75
2023/01/12 02:53:58;;;;;;;31.60;6.18;;;8.60;99.90;;;;;;5051157;28;20142;-75
2023/01/12 02:56:32;;;;;;;19.00;5.05;;;8.60;99.90;;;;;;5035217;28;20080;-75
2023/01/12 02:59:02;;;;;;;19.67;3.67;;;8.40;99.90;;;;;;5051498;28;20090;-75
2023/01/12 03:01:29;;;;;;;32.47;5.28;;;8.50;99.90;;;;;;5051544;28;20049;-75
2023/01/12 03:03:58;;;;;;;15.82;3.92;;;8.50;99.90;;;;;;5050514;28;20056;-75
2023/01/12 03:06:24;;;;;;;18.15;4.32;;;8.30;99.90;;;;;;5052217;28;20037;-75
2023/01/12 03:08:51;;;;;;;18.80;5.05;;;8.40;99.90;;;;;;5051280;28;20123;-75
2023/01/12 03:11:22;;;;;;;17.70;5.03;;;8.40;99.90;;;;;;5051406;28;20549;-75
2023/01/12 03:13:50;;;;;;;20.25;5.22;;;8.40;99.90;;;;;;5050478;28;20147;-75
2023/01/12 03:16:21;;;;;;;27.35;5.35;;;8.30;99.90;;;;;;5051097;28;20503;-76
2023/01/12 03:19:08;;;;;;;23.52;5.53;;;8.50;99.90;;;;;;5051196;28;20040;-75
2023/01/12 03:21:52;;;;;;;17.60;4.63;;;8.60;99.90;;;;;;5034545;28;20045;-75
2023/01/12 03:24:26;;;;;;;18.88;5.18;;;8.50;99.90;;;;;;5033691;28;20124;-75
2023/01/12 03:26:58;;;;;;;21.13;5.20;;;8.40;99.90;;;;;;5051017;28;20044;-75
2023/01/12 03:29:29;;;;;;;23.50;5.05;;;8.40;99.90;;;;;;5068164;28;20111;-75
2023/01/12 03:31:55;;;;;;;26.70;5.70;;;8.60;99.90;;;;;;5070652;28;20044;-75
2023/01/12 03:34:21;;;;;;;21.50;4.43;;;8.60;99.90;;;;;;5069939;28;20117;-75
2023/01/12 03:37:10;;;;;;;28.67;5.50;;;8.60;99.90;;;;;;5070702;28;20493;-75
2023/01/12 03:39:48;;;;;;;17.52;4.95;;;8.50;99.90;;;;;;5054340;28;20105;-75
2023/01/12 03:42:48;;;;;;;19.98;5.72;;;8.70;99.90;;;;;;5053983;28;20498;-75
2023/01/12 03:45:17;;;;;;;23.33;5.22;;;8.80;99.90;;;;;;5043151;28;20135;-75
2023/01/12 03:47:46;;;;;;;19.85;4.85;;;8.70;99.90;;;;;;5070758;28;20054;-75
2023/01/12 03:50:17;;;;;;;14.77;4.82;;;8.70;99.90;;;;;;5070878;28;20155;-75
2023/01/12 03:52:44;;;;;;;19.30;4.70;;;8.50;99.90;;;;;;5069889;28;20072;-75
2023/01/12 03:55:13;;;;;;;25.88;5.82;;;8.60;99.90;;;;;;5070104;28;20043;-75
2023/01/12 03:57:39;;;;;;;20.02;4.70;;;8.60;99.90;;;;;;5070260;28;20437;-76
2023/01/12 04:00:09;;;;;;;18.83;4.60;;;8.60;99.90;;;;;;5070693;28;20036;-75
2023/01/12 04:02:35;;;;;;;21.85;4.72;;;8.60;99.90;;;;;;5069611;28;20047;-75
2023/01/12 04:05:00;;;;;;;17.48;4.03;;;8.60;99.90;;;;;;5070380;28;20041;-75
2023/01/12 04:07:26;;;;;;;20.08;4.40;;;8.70;99.90;;;;;;5070292;28;20036;-75
2023/01/12 04:09:51;;;;;;;25.17;5.28;;;8.90;99.90;;;;;;5070303;28;20086;-75
2023/01/12 04:12:17;;;;;;;16.88;4.32;;;8.70;99.90;;;;;;5068985;28;20051;-75
2023/01/12 04:14:44;;;;;;;14.75;3.45;;;8.70;99.90;;;;;;5069770;28;20521;-75
2023/01/12 04:17:15;;;;;;;20.02;4.13;;;8.80;99.90;;;;;;5070365;28;20500;-75
2023/01/12 04:19:41;;;;;;;14.75;3.58;;;8.90;99.90;;;;;;5052924;28;20042;-76
2023/01/12 04:24:51;;;;;;;15.27;3.95;;;8.60;99.90;;;;;;5070169;28;20051;-75
2023/01/12 04:27:17;;;;;;;16.90;3.30;;;8.80;99.90;;;;;;5071494;28;20036;-75
2023/01/12 04:29:43;;;;;;;14.13;3.97;;;8.90;99.90;;;;;;5070500;28;20040;-75
2023/01/12 04:32:10;;;;;;;23.77;4.78;;;8.70;99.90;;;;;;5070359;28;20039;-75
2023/01/12 04:34:35;;;;;;;10.68;2.90;;;8.80;99.90;;;;;;5069550;28;20068;-75
2023/01/12 04:37:01;;;;;;;12.43;3.17;;;8.80;99.90;;;;;;5069950;28;20072;-75
2023/01/12 04:39:27;;;;;;;9.63;2.90;;;8.80;99.90;;;;;;5070306;28;20129;-75
2023/01/12 04:41:53;;;;;;;9.50;2.58;;;9.00;99.90;;;;;;5070025;28;20043;-75
2023/01/12 04:44:19;;;;;;;8.65;2.33;;;8.80;99.90;;;;;;5052674;28;20041;-75
2023/01/12 04:46:46;;;;;;;13.55;3.13;;;8.80;99.90;;;;;;5069498;28;20038;-75
2023/01/12 04:49:12;;;;;;;11.35;3.20;;;8.70;99.90;;;;;;5053204;28;20036;-75
2023/01/12 04:51:37;;;;;;;12.05;3.15;;;9.00;99.90;;;;;;5069939;28;20040;-75
2023/01/12 04:54:03;;;;;;;11.45;3.10;;;8.90;99.90;;;;;;5052781;28;20047;-75
2023/01/12 04:56:29;;;;;;;7.65;2.97;;;8.90;99.90;;;;;;5053141;28;20092;-75
2023/01/12 04:59:00;;;;;;;11.43;3.00;;;8.70;99.90;;;;;;5069946;28;20041;-75
2023/01/12 05:01:28;;;;;;;9.95;2.88;;;8.90;99.90;;;;;;5070172;28;20052;-75
2023/01/12 05:03:55;;;;;;;8.25;2.30;;;8.90;99.90;;;;;;5051691;28;20048;-75
2023/01/12 05:06:21;;;;;;;6.65;2.47;;;8.60;99.90;;;;;;5069731;28;20032;-75
2023/01/12 05:11:31;;;;;;;6.47;1.90;;;8.60;99.90;;;;;;5070184;28;20402;-75
2023/01/12 05:13:57;;;;;;;8.45;2.30;;;8.60;99.90;;;;;;5069303;28;20041;-75
2023/01/12 05:16:23;;;;;;;6.55;2.42;;;8.70;99.90;;;;;;5052938;28;20040;-76
2023/01/12 05:18:51;;;;;;;7.18;1.73;;;8.70;99.90;;;;;;5069800;28;20051;-75
2023/01/12 05:21:18;;;;;;;6.50;1.42;;;8.90;99.90;;;;;;5069753;28;20045;-75
2023/01/12 05:23:44;;;;;;;4.43;1.58;;;8.70;99.90;;;;;;5052281;28;20037;-75
2023/01/12 05:26:10;;;;;;;4.00;1.73;;;8.80;99.90;;;;;;5069658;28;20048;-75
2023/01/12 05:28:35;;;;;;;6.80;1.92;;;8.90;99.90;;;;;;5069754;28;20033;-75
2023/01/12 05:31:04;;;;;;;8.68;2.05;;;8.60;99.90;;;;;;5072566;28;20075;-75
2023/01/12 05:33:30;;;;;;;7.95;2.05;;;8.60;99.90;;;;;;5072414;28;20041;-75
2023/01/12 05:35:56;;;;;;;4.85;1.95;;;8.90;99.90;;;;;;5073180;28;20140;-75
2023/01/12 05:38:22;;;;;;;5.40;2.30;;;8.60;99.90;;;;;;5073421;28;20671;-75
2023/01/12 05:40:48;;;;;;;6.60;2.10;;;8.80;99.90;;;;;;5056639;28;20080;-75
2023/01/12 05:46:02;;;;;;;7.45;2.13;;;8.80;99.90;;;;;;5073032;28;20037;-75
2023/01/12 05:48:29;;;;;;;4.82;1.60;;;8.60;99.90;;;;;;5072802;28;20125;-75
2023/01/12 05:50:57;;;;;;;8.70;2.10;;;8.60;99.90;;;;;;5073139;28;20043;-75
2023/01/12 05:53:23;;;;;;;7.82;2.00;;;8.60;99.90;;;;;;5072105;28;20094;-75
2023/01/12 05:55:48;;;;;;;5.38;1.80;;;8.70;99.90;;;;;;5056093;28;20040;-75
2023/01/12 05:58:14;;;;;;;5.00;1.80;;;8.70;99.90;;;;;;5072581;28;20137;-75
2023/01/12 06:00:39;;;;;;;5.45;1.75;;;8.50;99.90;;;;;;5072239;28;20485;-75
2023/01/12 06:03:05;;;;;;;5.97;2.42;;;8.60;99.90;;;;;;5071921;28;20041;-75
2023/01/12 06:05:30;;;;;;;7.22;1.70;;;8.60;99.90;;;;;;5072424;28;20467;-75
2023/01/12 06:07:57;;;;;;;4.03;2.00;;;8.50;99.90;;;;;;5072396;28;20573;-75
2023/01/12 06:10:22;;;;;;;4.20;1.30;;;8.70;99.90;;;;;;5055782;28;20422;-75
2023/01/12 06:15:36;;;;;;;4.40;1.55;;;8.70;99.90;;;;;;5072482;28;20502;-75
2023/01/12 06:18:01;;;;;;;5.95;1.70;;;8.60;99.90;;;;;;5072261;28;20052;-75
2023/01/12 06:20:27;;;;;;;3.35;1.33;;;8.60;99.90;;;;;;5072220;28;20041;-75
2023/01/12 06:22:52;;;;;;;3.75;1.40;;;8.70;99.90;;;;;;5071481;28;20177;-75
2023/01/12 06:25:18;;;;;;;4.88;1.80;;;8.80;99.90;;;;;;5072195;28;20094;-75
2023/01/12 06:27:43;;;;;;;2.97;1.15;;;8.80;99.90;;;;;;5072339;28;20123;-75
2023/01/12 06:30:09;;;;;;;5.20;1.00;;;8.60;99.90;;;;;;5072213;28;20048;-75
2023/01/12 06:32:35;;;;;;;6.85;1.20;;;8.60;99.90;;;;;;5071637;28;20110;-75
2023/01/12 06:35:02;;;;;;;4.15;1.83;;;8.90;99.90;;;;;;5071988;28;20749;-75
2023/01/12 06:37:28;;;;;;;4.55;1.30;;;8.90;99.90;;;;;;5071867;28;20071;-75
2023/01/12 06:39:53;;;;;;;2.63;0.80;;;8.70;99.90;;;;;;5072197;28;20103;-75
2023/01/12 06:42:28;;;;;;;2.63;0.88;;;8.90;99.90;;;;;;5070661;28;20067;-75
2023/01/12 06:44:57;;;;;;;2.97;1.00;;;8.90;99.90;;;;;;5055133;28;20056;-75
2023/01/12 06:47:23;;;;;;;2.17;0.65;;;8.80;99.90;;;;;;5054869;28;20048;-75
2023/01/12 06:49:50;;;;;;;3.88;1.30;;;8.90;99.90;;;;;;5055043;28;20036;-75
2023/01/12 06:52:23;;;;;;;2.60;0.75;;;9.00;99.90;;;;;;5071525;28;20397;-75
2023/01/12 06:54:49;;;;;;;3.22;0.80;;;8.90;99.90;;;;;;5072069;28;20048;-76
2023/01/12 06:57:14;;;;;;;2.45;0.77;;;8.80;99.90;;;;;;5071436;28;20036;-75
2023/01/12 06:59:41;;;;;;;1.33;0.70;;;9.20;99.90;;;;;;5054740;28;20040;-75
2023/01/12 07:02:11;;;;;;;2.67;0.90;;;9.20;99.90;;;;;;5071124;28;20036;-75
2023/01/12 07:04:37;;;;;;;2.47;0.75;;;9.20;99.90;;;;;;5053853;28;20036;-75
2023/01/12 07:07:03;;;;;;;2.75;1.00;;;9.20;99.90;;;;;;5071107;28;20102;-76
2023/01/12 07:09:28;;;;;;;2.65;1.25;;;9.20;99.90;;;;;;5071242;28;20119;-75
2023/01/12 07:11:54;;;;;;;1.98;1.00;;;9.10;99.90;;;;;;5054949;28;20079;-76
2023/01/12 07:14:19;;;;;;;3.28;1.30;;;9.30;99.90;;;;;;5070434;28;20132;-76
2023/01/12 07:16:45;;;;;;;3.55;1.20;;;9.30;99.90;;;;;;5054398;28;20119;-77
2023/01/12 07:19:10;;;;;;;2.05;1.20;;;9.20;99.90;;;;;;5071057;28;20044;-76
2023/01/12 07:21:36;;;;;;;2.45;1.17;;;9.30;99.90;;;;;;5054812;28;20422;-75
2023/01/12 07:24:01;;;;;;;4.25;1.40;;;9.30;99.90;;;;;;5070457;28;20558;-76
2023/01/12 07:26:27;;;;;;;3.47;1.20;;;9.40;99.90;;;;;;5071168;28;20119;-76
2023/01/12 07:28:54;;;;;;;3.53;1.20;;;9.30;99.90;;;;;;5070793;28;20044;-75
2023/01/12 07:31:20;;;;;;;3.45;1.30;;;9.40;99.90;;;;;;5071000;28;20043;-75
2023/01/12 07:33:45;;;;;;;3.33;1.15;;;9.30;99.90;;;;;;5070115;28;20040;-75
2023/01/12 07:36:11;;;;;;;3.58;1.30;;;9.50;99.90;;;;;;5070856;28;20114;-75
2023/01/12 07:38:37;;;;;;;2.58;1.30;;;9.50;99.90;;;;;;5070995;28;20052;-75
2023/01/12 07:41:03;;;;;;;4.07;1.73;;;9.40;99.90;;;;;;5070989;28;20052;-75
2023/01/12 07:43:29;;;;;;;4.45;1.58;;;9.50;99.90;;;;;;5069836;28;20423;-75
2023/01/12 07:45:56;;;;;;;3.80;1.48;;;9.50;99.90;;;;;;5070642;28;20383;-75
2023/01/12 07:48:23;;;;;;;5.47;2.00;;;9.50;99.90;;;;;;5070344;28;20526;-75
2023/01/12 07:50:49;;;;;;;7.28;2.60;;;9.60;99.90;;;;;;5070587;28;20517;-75
2023/01/12 07:53:15;;;;;;;6.47;1.75;;;9.60;99.90;;;;;;5053271;28;20032;-75
2023/01/12 07:55:42;;;;;;;5.70;1.70;;;9.70;99.90;;;;;;5070585;28;20045;-75
2023/01/12 07:58:08;;;;;;;6.22;1.70;;;9.70;99.90;;;;;;5053792;28;20037;-75
2023/01/12 08:00:35;;;;;;;6.60;1.80;;;9.60;99.90;;;;;;5070335;28;20094;-75
2023/01/12 08:03:11;;;;;;;6.47;2.55;;;9.70;99.90;;;;;;5069438;28;20032;-75
2023/01/12 08:05:37;;;;;;;11.45;2.95;;;9.70;99.90;;;;;;5070362;28;20036;-75
2023/01/12 08:08:04;;;;;;;8.25;2.58;;;9.70;99.90;;;;;;5069279;28;20478;-75
2023/01/12 08:10:29;;;;;;;9.98;2.88;;;9.90;99.90;;;;;;5051807;28;20067;-75
2023/01/12 08:12:55;;;;;;;13.40;2.75;;;9.90;99.90;;;;;;5052901;28;20067;-75
2023/01/12 08:15:22;;;;;;;12.63;3.40;;;9.90;99.90;;;;;;5053941;28;20032;-75
2023/01/12 08:17:59;;;;;;;19.73;4.03;;;10.00;99.90;;;;;;5070275;28;20043;-75
2023/01/12 08:20:32;;;;;;;19.15;5.20;;;10.00;99.90;;;;;;5070482;28;20123;-76
2023/01/12 08:23:00;;;;;;;20.92;4.60;;;10.10;99.90;;;;;;5053412;28;20045;-80
2023/01/12 08:25:33;;;;;;;25.73;5.50;;;10.20;99.90;;;;;;5070773;28;20036;-73
2023/01/12 08:28:03;;;;;;;37.58;6.78;;;10.30;99.90;;;;;;5070152;28;20041;-75
2023/01/12 08:30:29;;;;;;;29.60;5.32;;;10.40;99.90;;;;;;5070016;28;20414;-76
2023/01/12 08:32:58;;;;;;;35.90;5.80;;;10.30;99.90;;;;;;5069199;28;20032;-76
2023/01/12 08:35:27;;;;;;;26.58;6.20;;;10.40;99.90;;;;;;5070195;28;20052;-76
2023/01/12 08:37:54;;;;;;;25.70;6.90;;;10.40;99.90;;;;;;5069907;28;20063;-76
2023/01/12 08:40:20;;;;;;;21.85;6.60;;;10.50;99.90;;;;;;5070047;28;20047;-75
2023/01/12 08:42:45;;;;;;;26.67;7.30;;;10.40;99.90;;;;;;5046661;28;20413;-75
2023/01/12 08:45:11;;;;;;;32.80;5.93;;;10.40;99.90;;;;;;5059777;28;20037;-75
2023/01/12 08:47:39;;;;;;;26.83;5.43;;;10.50;99.90;;;;;;5059225;28;20052;-75
2023/01/12 08:50:07;;;;;;;26.15;5.35;;;10.50;99.90;;;;;;5060510;28;20505;-74
2023/01/12 08:52:34;;;;;;;31.10;6.78;;;10.60;99.90;;;;;;5056968;28;20099;-75
2023/01/12 08:54:59;;;;;;;32.90;6.22;;;10.50;99.90;;;;;;5049723;28;20127;-75
2023/01/12 08:57:25;;;;;;;26.17;5.30;;;10.70;99.90;;;;;;5049492;28;20151;-75
2023/01/12 08:59:50;;;;;;;19.98;4.82;;;10.70;99.90;;;;;;5049993;28;20091;-75
2023/01/12 09:02:16;;;;;;;21.83;4.25;;;10.60;99.90;;;;;;5049767;28;20045;-74
2023/01/12 09:04:42;;;;;;;15.45;4.30;;;10.70;99.90;;;;;;5050586;28;20037;-74
2023/01/12 09:07:11;;;;;;;29.25;4.60;;;10.70;99.90;;;;;;5037094;28;20445;-75
2023/01/12 09:09:37;;;;;;;27.35;5.10;;;10.70;99.90;;;;;;5053471;28;20048;-75
2023/01/12 09:12:04;;;;;;;26.70;5.40;;;10.80;99.90;;;;;;5037039;28;20045;-74
2023/01/12 09:14:29;;;;;;;24.92;4.68;;;10.80;99.90;;;;;;5052600;28;20041;-75
2023/01/12 09:16:58;;;;;;;31.73;5.90;;;10.80;99.90;;;;;;5053247;28;20387;-75
2023/01/12 09:19:23;;;;;;;19.38;4.70;;;10.80;99.90;;;;;;5053279;28;20048;-75
2023/01/12 09:21:49;;;;;;;24.83;5.63;;;10.70;99.90;;;;;;5058308;28;20136;-75
2023/01/12 09:24:14;;;;;;;26.60;5.65;;;10.80;99.90;;;;;;5060980;28;20029;-75
2023/01/12 09:26:45;;;;;;;27.98;6.20;;;10.70;99.90;;;;;;5070128;28;20475;-75
2023/01/12 09:29:12;;;;;;;21.73;4.90;;;10.80;99.90;;;;;;5056416;28;20051;-74
2023/01/12 09:31:40;;;;;;;21.10;4.60;;;10.90;99.90;;;;;;5073204;28;20070;-75
2023/01/12 09:34:05;;;;;;;26.05;5.43;;;10.90;99.90;;;;;;5072636;28;20383;-75
2023/01/12 09:36:34;;;;;;;24.27;6.07;;;11.00;99.90;;;;;;5073006;28;20041;-74
2023/01/12 09:39:00;;;;;;;22.42;4.50;;;10.90;99.90;;;;;;5065971;28;20055;-75
2023/01/12 09:47:32;;;;;;;28.33;4.85;;;11.00;99.90;;;;;;5052682;28;20114;-74
2023/01/12 09:49:58;;;;;;;33.22;5.88;;;10.90;99.90;;;;;;5036324;28;20120;-74
2023/01/12 09:52:30;;;;;;;26.50;4.63;;;11.00;99.90;;;;;;5052202;28;20036;-74
2023/01/12 09:54:56;;;;;;;19.50;4.93;;;11.00;99.90;;;;;;5052916;28;20037;-74
2023/01/12 09:57:41;;;;;;;22.42;3.50;;;10.90;99.90;;;;;;5052783;28;20090;-74
2023/01/12 10:00:14;;;;;;;22.70;4.68;;;11.10;99.90;;;;;;5052796;28;20511;-74
2023/01/12 10:02:44;;;;;;;26.47;4.03;;;10.90;99.90;;;;;;5052305;28;20140;-77
2023/01/12 10:05:37;;;;;;;29.08;4.22;;;11.00;99.90;;;;;;5037684;28;20124;-78
2023/01/12 10:08:03;;;;;;;23.87;4.43;;;11.00;99.90;;;;;;5032263;28;20573;-78
2023/01/12 10:10:29;;;;;;;18.00;4.03;;;11.20;99.90;;;;;;5035297;28;20287;-74
2023/01/12 10:12:59;;;;;;;22.38;4.30;;;11.20;99.90;;;;;;5051015;28;20044;-74
2023/01/12 10:15:37;;;;;;;21.98;4.10;;;11.00;99.90;;;;;;5067478;28;20052;-74
2023/01/12 10:18:30;;;;;;;27.13;4.82;;;11.10;99.90;;;;;;5071421;28;20529;-74
2023/01/12 10:20:57;;;;;;;23.15;3.63;;;11.10;99.90;;;;;;5071913;28;20041;-74
2023/01/12 10:23:26;;;;;;;19.80;3.83;;;11.10;99.90;;;;;;5071485;28;20127;-74
2023/01/12 10:26:14;;;;;;;30.52;4.63;;;11.10;99.90;;;;;;5072368;28;20062;-74
2023/01/12 10:28:42;;;;;;;23.33;4.53;;;11.20;99.90;;;;;;5072444;28;20429;-74
2023/01/12 10:31:24;;;;;;;14.18;3.85;;;11.20;99.90;;;;;;5054678;28;20040;-74
2023/01/12 10:34:07;;;;;;;15.63;2.95;;;11.30;99.90;;;;;;5071391;28;20394;-74
2023/01/12 10:36:36;;;;;;;19.05;4.07;;;11.30;99.90;;;;;;5072001;28;20116;-70
2023/01/12 10:39:04;;;;;;;24.98;4.75;;;11.40;99.90;;;;;;5071716;28;20071;-71
2023/01/12 10:41:36;;;;;;;21.48;3.92;;;11.40;99.90;;;;;;5072074;28;20041;-72
2023/01/12 10:44:02;;;;;;;23.83;4.80;;;11.40;99.90;;;;;;5054387;28;20074;-71
2023/01/12 10:46:30;;;;;;;13.52;3.53;;;11.50;99.90;;;;;;5071830;28;20502;-71
2023/01/12 10:49:21;;;;;;;12.82;3.78;;;11.40;99.90;;;;;;5054900;28;20044;-72
2023/01/12 10:51:57;;;;;;;13.32;2.83;;;11.40;99.90;;;;;;5071012;28;20045;-71
2023/01/12 10:54:32;;;;;;;18.50;3.08;;;11.40;99.90;;;;;;5050939;28;20419;-71
2023/01/12 10:57:03;;;;;;;18.13;3.70;;;11.60;99.90;;;;;;5051654;28;20040;-71
2023/01/12 10:59:31;;;;;;;22.67;3.45;;;11.50;99.90;;;;;;5051488;28;20051;-71
2023/01/12 11:02:12;;;;;;;24.45;3.45;;;11.40;99.90;;;;;;5051729;28;20051;-72
2023/01/12 11:04:43;;;;;;;13.10;2.95;;;11.60;99.90;;;;;;5051030;28;20526;-72
2023/01/12 11:07:25;;;;;;;17.60;3.05;;;11.50;99.90;;;;;;5034336;28;20036;-71
2023/01/12 11:09:52;;;;;;;21.30;3.75;;;11.60;99.90;;;;;;5051659;28;20398;-72
2023/01/12 11:12:35;;;;;;;16.98;3.30;;;11.70;99.90;;;;;;5050756;28;20040;-71
2023/01/12 11:15:10;;;;;;;19.85;3.15;;;11.50;99.90;;;;;;5051009;28;20079;-72
2023/01/12 11:17:43;;;;;;;15.80;3.35;;;11.70;99.90;;;;;;5055009;28;20051;-71
2023/01/12 11:20:33;;;;;;;17.15;4.22;;;11.80;99.90;;;;;;5067520;28;20049;-71
2023/01/12 11:23:01;;;;;;;16.50;3.10;;;11.80;99.90;;;;;;5033300;28;20048;-71
2023/01/12 11:25:34;;;;;;;13.15;2.85;;;11.80;99.90;;;;;;5050439;28;20072;-71
2023/01/12 11:28:12;;;;;;;23.35;3.45;;;11.70;99.90;;;;;;5050297;28;20037;-71
2023/01/12 11:31:15;;;;;;;12.93;2.63;;;11.70;99.90;;;;;;5050779;28;20101;-71
2023/01/12 11:33:45;;;;;;;17.13;3.80;;;11.70;99.90;;;;;;5050039;28;20506;-71
2023/01/12 11:36:19;;;;;;;14.43;3.70;;;11.70;99.90;;;;;;5050581;28;20032;-71
2023/01/12 11:39:05;;;;;;;16.30;4.18;;;11.80;99.90;;;;;;5050630;28;20045;-71
2023/01/12 11:41:40;;;;;;;15.05;2.83;;;11.90;99.90;;;;;;5050815;28;20399;-71
2023/01/12 11:44:28;;;;;;;17.65;4.72;;;11.70;99.90;;;;;;5049805;28;20395;-71
2023/01/12 11:47:14;;;;;;;14.23;3.65;;;11.80;99.90;;;;;;5050227;28;20045;-71
2023/01/12 11:50:02;;;;;;;14.05;4.15;;;12.00;99.90;;;;;;5050732;28;20131;-71
2023/01/12 11:52:28;;;;;;;17.67;3.38;;;12.00;99.90;;;;;;5050828;28;20505;-71
2023/01/12 11:54:54;;;;;;;13.77;2.95;;;12.00;99.90;;;;;;5050364;28;20074;-71
2023/01/12 11:57:59;;;;;;;17.20;3.88;;;12.10;99.90;;;;;;5049948;28;20063;-71
2023/01/12 12:00:25;;;;;;;15.43;3.30;;;12.10;99.90;;;;;;5050223;28;20670;-71
2023/01/12 12:02:56;;;;;;;21.27;3.72;;;11.90;99.90;;;;;;5049180;28;20049;-70
2023/01/12 12:05:45;;;;;;;9.02;2.63;;;11.90;99.90;;;;;;5050156;28;20098;-71
2023/01/12 12:08:37;;;;;;;12.52;2.65;;;11.90;99.90;;;;;;5049953;28;20065;-71
2023/01/12 12:11:34;;;;;;;13.82;2.95;;;12.00;99.90;;;;;;5049827;28;20037;-71
2023/01/12 12:14:16;;;;;;;10.60;2.85;;;11.90;99.90;;;;;;5050579;28;20076;-71
2023/01/12 12:17:04;;;;;;;16.65;2.80;;;12.00;99.90;;;;;;5049854;28;20049;-71
2023/01/12 12:20:02;;;;;;;15.50;2.65;;;12.00;99.90;;;;;;5049592;28;20560;-71
2023/01/12 12:23:12;;;;;;;10.70;2.38;;;11.90;99.90;;;;;;5065920;28;20052;-71
2023/01/12 12:25:51;;;;;;;14.80;2.70;;;12.00;99.90;;;;;;5049724;28;20127;-71
2023/01/12 12:28:19;;;;;;;16.67;3.45;;;12.10;99.90;;;;;;5049717;28;20124;-71
2023/01/12 12:31:00;;;;;;;14.20;2.38;;;12.10;99.90;;;;;;5050022;28;20076;-71
2023/01/12 12:34:03;;;;;;;16.63;3.35;;;12.10;99.90;;;;;;5065700;28;20632;-71
2023/01/12 12:36:40;;;;;;;8.67;2.43;;;12.10;99.90;;;;;;5030647;28;20087;-70
2023/01/12 12:39:17;;;;;;;10.50;2.53;;;11.90;99.90;;;;;;5049771;28;20037;-71
2023/01/12 12:45:16;;;;;;;15.65;3.67;;;12.10;99.90;;;;;;5055213;28;20052;-71
2023/01/12 12:48:14;;;;;;;13.00;3.05;;;11.80;99.90;;;;;;5052713;28;20101;-71
2023/01/12 12:50:57;;;;;;;15.02;3.45;;;12.00;99.90;;;;;;5054789;28;20094;-71
2023/01/12 12:53:35;;;;;;;16.15;3.97;;;11.70;99.90;;;;;;5051074;28;20708;-71
2023/01/12 12:56:22;;;;;;;10.43;2.75;;;11.90;99.90;;;;;;5051765;28;20044;-71
2023/01/12 12:58:48;;;;;;;17.25;3.60;;;11.70;99.90;;;;;;5053415;28;20037;-72
2023/01/12 13:01:20;;;;;;;18.95;4.38;;;11.70;99.90;;;;;;5058971;28;20072;-70
2023/01/12 13:03:57;;;;;;;18.90;3.85;;;11.80;99.90;;;;;;5063591;28;20440;-71
2023/01/12 13:06:27;;;;;;;14.85;3.45;;;11.90;99.90;;;;;;5063952;28;20040;-71
2023/01/12 13:08:55;;;;;;;16.55;3.33;;;11.90;99.90;;;;;;5062206;28;20528;-72
2023/01/12 13:11:54;;;;;;;16.58;3.10;;;11.60;99.90;;;;;;5062274;28;20098;-71
2023/01/12 13:14:24;;;;;;;15.73;3.35;;;11.80;99.90;;;;;;5052754;28;20525;-71
2023/01/12 13:16:54;;;;;;;19.17;4.50;;;11.80;99.90;;;;;;5075100;23;20095;-75
2023/01/12 13:19:42;;;;;;;21.02;3.80;;;11.80;99.90;;;;;;4994671;28;20038;-74
2023/01/12 13:22:26;;;;;;;14.48;4.05;;;11.80;99.90;;;;;;4995150;28;20523;-74
2023/01/12 13:24:53;;;;;;;17.45;3.47;;;11.70;99.90;;;;;;4995298;28;20049;-75
2023/01/12 13:27:49;;;;;;;15.13;3.20;;;11.60;99.90;;;;;;4994117;28;20400;-74
2023/01/12 13:30:26;;;;;;;18.90;3.72;;;11.80;99.90;;;;;;4995474;28;20349;-74
2023/01/12 13:32:52;;;;;;;12.18;2.70;;;11.60;99.90;;;;;;4994045;28;20445;-74
2023/01/12 13:35:33;;;;;;;10.75;3.58;;;11.70;99.90;;;;;;4992884;28;20054;-75
2023/01/12 13:38:32;;;;;;;16.60;3.63;;;11.70;99.90;;;;;;5009866;28;20496;-75